sensor_id;sensor_type;location;lat;lon;timestamp;pressure;altitude;pressure_sealevel;temperature;humidity
11329;BME280;5719;42.714;23.732;2023-05-19T00:01:44;94606.97;;;12.31;100.00
11329;BME280;5719;42.714;23.732;2023-05-19T00:04:13;94606.50;;;12.37;100.00
11329;BME280;5719;42.714;23.732;2023-05-19T00:06:40;94595.44;;;12.35;100.00
11329;BME280;5719;42.714;23.732;2023-05-19T00:09:09;94599.41;;;12.39;100.00
11329;BME280;5719;42.714;23.732;2023-05-19T00:11:38;94596.47;;;12.43;100.00
11329;BME280;5719;42.714;23.732;2023-05-19T00:14:07;94586.00;;;12.11;100.00
11329;BME280;5719;42.714;23.732;2023-05-19T00:16:36;94584.47;;;12.09;100.00
11329;BME280;5719;42.714;23.732;2023-05-19T00:19:05;94584.25;;;12.23;100.00
11329;BME280;5719;42.714;23.732;2023-05-19T00:21:34;94585.41;;;12.30;100.00
11329;BME280;5719;42.714;23.732;2023-05-19T00:24:02;94584.94;;;12.36;100.00
11329;BME280;5719;42.714;23.732;2023-05-19T00:26:29;94588.84;;;12.42;100.00
11329;BME280;5719;42.714;23.732;2023-05-19T00:28:56;94591.88;;;12.47;100.00
11329;BME280;5719;42.714;23.732;2023-05-19T00:31:23;94576.47;;;12.45;100.00
11329;BME280;5719;42.714;23.732;2023-05-19T00:33:51;94571.38;;;12.44;100.00
11329;BME280;5719;42.714;23.732;2023-05-19T00:36:18;94583.50;;;12.43;100.00
11329;BME280;5719;42.714;23.732;2023-05-19T00:38:45;94581.28;;;12.39;100.00
11329;BME280;5719;42.714;23.732;2023-05-19T00:41:12;94590.34;;;12.44;100.00
11329;BME280;5719;42.714;23.732;2023-05-19T00:43:39;94582.59;;;12.44;100.00
11329;BME280;5719;42.714;23.732;2023-05-19T00:46:06;94590.00;;;12.49;100.00
11329;BME280;5719;42.714;23.732;2023-05-19T00:48:33;94586.34;;;12.51;100.00
11329;BME280;5719;42.714;23.732;2023-05-19T00:51:02;94585.41;;;12.52;100.00
11329;BME280;5719;42.714;23.732;2023-05-19T00:53:31;94585.41;;;12.52;100.00
11329;BME280;5719;42.714;23.732;2023-05-19T00:55:59;94592.22;;;12.53;100.00
11329;BME280;5719;42.714;23.732;2023-05-19T00:58:27;94583.25;;;12.57;100.00
11329;BME280;5719;42.714;23.732;2023-05-19T01:00:56;94586.81;;;12.56;100.00
11329;BME280;5719;42.714;23.732;2023-05-19T01:03:30;94583.50;;;12.54;100.00
11329;BME280;5719;42.714;23.732;2023-05-19T01:06:00;94571.50;;;12.42;100.00
11329;BME280;5719;42.714;23.732;2023-05-19T01:08:30;94587.75;;;12.33;100.00
11329;BME280;5719;42.714;23.732;2023-05-19T01:10:57;94582.56;;;12.22;100.00
11329;BME280;5719;42.714;23.732;2023-05-19T01:13:25;94589.06;;;12.27;100.00
11329;BME280;5719;42.714;23.732;2023-05-19T01:16:01;94582.47;;;12.12;100.00
11329;BME280;5719;42.714;23.732;2023-05-19T01:18:40;94588.09;;;12.06;100.00
11329;BME280;5719;42.714;23.732;2023-05-19T01:21:25;94594.84;;;12.09;100.00
11329;BME280;5719;42.714;23.732;2023-05-19T01:24:18;94594.69;;;12.10;100.00
11329;BME280;5719;42.714;23.732;2023-05-19T01:30:10;94602.91;;;11.82;100.00
11329;BME280;5719;42.714;23.732;2023-05-19T01:32:39;94597.75;;;11.93;100.00
11329;BME280;5719;42.714;23.732;2023-05-19T01:35:07;94591.44;;;11.39;100.00
11329;BME280;5719;42.714;23.732;2023-05-19T01:37:36;94609.72;;;11.48;100.00
11329;BME280;5719;42.714;23.732;2023-05-19T01:40:06;94599.84;;;11.53;100.00
11329;BME280;5719;42.714;23.732;2023-05-19T01:42:33;94600.81;;;11.63;100.00
11329;BME280;5719;42.714;23.732;2023-05-19T01:45:02;94598.44;;;11.73;100.00
11329;BME280;5719;42.714;23.732;2023-05-19T01:47:32;94595.13;;;11.82;100.00
11329;BME280;5719;42.714;23.732;2023-05-19T01:50:02;94601.00;;;11.84;100.00
11329;BME280;5719;42.714;23.732;2023-05-19T01:52:29;94602.56;;;11.87;100.00
11329;BME280;5719;42.714;23.732;2023-05-19T01:54:56;94593.94;;;11.75;100.00
11329;BME280;5719;42.714;23.732;2023-05-19T01:57:30;94583.00;;;11.71;100.00
11329;BME280;5719;42.714;23.732;2023-05-19T02:00:04;94577.94;;;11.81;100.00
11329;BME280;5719;42.714;23.732;2023-05-19T02:02:42;94578.31;;;11.76;100.00
11329;BME280;5719;42.714;23.732;2023-05-19T02:05:19;94585.34;;;11.74;100.00
11329;BME280;5719;42.714;23.732;2023-05-19T02:07:57;94595.97;;;11.83;100.00
11329;BME280;5719;42.714;23.732;2023-05-19T02:10:27;94599.84;;;11.88;100.00
11329;BME280;5719;42.714;23.732;2023-05-19T02:12:59;94591.97;;;11.90;100.00
11329;BME280;5719;42.714;23.732;2023-05-19T02:15:29;94593.78;;;11.65;100.00
11329;BME280;5719;42.714;23.732;2023-05-19T02:18:01;94595.78;;;11.38;100.00
11329;BME280;5719;42.714;23.732;2023-05-19T02:20:29;94603.13;;;11.55;100.00
11329;BME280;5719;42.714;23.732;2023-05-19T02:22:56;94597.91;;;11.68;100.00
11329;BME280;5719;42.714;23.732;2023-05-19T02:25:22;94595.69;;;11.74;100.00
11329;BME280;5719;42.714;23.732;2023-05-19T02:27:51;94596.81;;;11.59;100.00
11329;BME280;5719;42.714;23.732;2023-05-19T02:30:18;94604.56;;;11.59;100.00
11329;BME280;5719;42.714;23.732;2023-05-19T02:32:44;94618.63;;;11.68;100.00
11329;BME280;5719;42.714;23.732;2023-05-19T02:35:13;94619.84;;;11.75;100.00
11329;BME280;5719;42.714;23.732;2023-05-19T02:37:40;94613.59;;;11.77;100.00
11329;BME280;5719;42.714;23.732;2023-05-19T02:40:08;94613.66;;;11.65;100.00
11329;BME280;5719;42.714;23.732;2023-05-19T02:42:35;94607.00;;;11.73;100.00
11329;BME280;5719;42.714;23.732;2023-05-19T02:45:02;94610.13;;;11.31;100.00
11329;BME280;5719;42.714;23.732;2023-05-19T02:47:29;94621.72;;;11.49;100.00
11329;BME280;5719;42.714;23.732;2023-05-19T02:49:56;94625.50;;;11.56;100.00
11329;BME280;5719;42.714;23.732;2023-05-19T02:52:24;94623.84;;;11.55;100.00
11329;BME280;5719;42.714;23.732;2023-05-19T02:54:51;94634.00;;;11.58;100.00
11329;BME280;5719;42.714;23.732;2023-05-19T02:57:18;94627.59;;;11.51;100.00
11329;BME280;5719;42.714;23.732;2023-05-19T02:59:45;94629.03;;;11.55;100.00
11329;BME280;5719;42.714;23.732;2023-05-19T03:02:11;94614.28;;;11.45;100.00
11329;BME280;5719;42.714;23.732;2023-05-19T03:04:38;94616.50;;;11.38;100.00
11329;BME280;5719;42.714;23.732;2023-05-19T03:07:07;94623.72;;;11.46;100.00
11329;BME280;5719;42.714;23.732;2023-05-19T03:09:37;94624.78;;;11.43;100.00
11329;BME280;5719;42.714;23.732;2023-05-19T03:12:04;94629.16;;;11.54;100.00
11329;BME280;5719;42.714;23.732;2023-05-19T03:14:32;94623.66;;;11.58;100.00
11329;BME280;5719;42.714;23.732;2023-05-19T03:16:59;94632.63;;;11.65;100.00
11329;BME280;5719;42.714;23.732;2023-05-19T03:19:26;94627.91;;;11.70;100.00
11329;BME280;5719;42.714;23.732;2023-05-19T03:21:53;94640.13;;;11.57;100.00
11329;BME280;5719;42.714;23.732;2023-05-19T03:24:20;94638.00;;;11.62;100.00
11329;BME280;5719;42.714;23.732;2023-05-19T03:26:49;94646.22;;;11.56;100.00
11329;BME280;5719;42.714;23.732;2023-05-19T03:29:16;94648.53;;;11.48;100.00
11329;BME280;5719;42.714;23.732;2023-05-19T03:31:43;94641.06;;;11.09;100.00
11329;BME280;5719;42.714;23.732;2023-05-19T03:34:10;94644.03;;;10.79;100.00
11329;BME280;5719;42.714;23.732;2023-05-19T03:36:36;94638.63;;;10.95;100.00
11329;BME280;5719;42.714;23.732;2023-05-19T03:39:04;94636.50;;;11.12;100.00
11329;BME280;5719;42.714;23.732;2023-05-19T03:41:31;94642.56;;;11.24;100.00
11329;BME280;5719;42.714;23.732;2023-05-19T03:43:59;94638.53;;;11.20;100.00
11329;BME280;5719;42.714;23.732;2023-05-19T03:46:26;94635.91;;;11.32;100.00
11329;BME280;5719;42.714;23.732;2023-05-19T03:48:53;94643.72;;;11.44;100.00
11329;BME280;5719;42.714;23.732;2023-05-19T03:51:20;94645.97;;;11.24;100.00
11329;BME280;5719;42.714;23.732;2023-05-19T03:53:47;94651.47;;;11.20;100.00
11329;BME280;5719;42.714;23.732;2023-05-19T03:56:14;94651.03;;;11.02;100.00
11329;BME280;5719;42.714;23.732;2023-05-19T03:58:42;94654.59;;;11.12;100.00
11329;BME280;5719;42.714;23.732;2023-05-19T04:01:12;94652.59;;;11.28;100.00
11329;BME280;5719;42.714;23.732;2023-05-19T04:03:39;94653.25;;;11.43;100.00
11329;BME280;5719;42.714;23.732;2023-05-19T04:06:06;94657.66;;;11.54;100.00
11329;BME280;5719;42.714;23.732;2023-05-19T04:08:34;94664.72;;;11.63;100.00
11329;BME280;5719;42.714;23.732;2023-05-19T04:11:00;94673.53;;;11.73;100.00
11329;BME280;5719;42.714;23.732;2023-05-19T04:13:27;94666.84;;;11.82;100.00
11329;BME280;5719;42.714;23.732;2023-05-19T04:15:54;94660.28;;;11.65;100.00
11329;BME280;5719;42.714;23.732;2023-05-19T04:18:22;94664.13;;;11.59;100.00
11329;BME280;5719;42.714;23.732;2023-05-19T04:20:49;94668.28;;;11.62;100.00
11329;BME280;5719;42.714;23.732;2023-05-19T04:23:16;94663.38;;;11.46;100.00
11329;BME280;5719;42.714;23.732;2023-05-19T04:25:43;94658.69;;;11.27;100.00
11329;BME280;5719;42.714;23.732;2023-05-19T04:28:13;94667.44;;;11.14;100.00
11329;BME280;5719;42.714;23.732;2023-05-19T04:30:42;94671.28;;;11.08;100.00
11329;BME280;5719;42.714;23.732;2023-05-19T04:33:11;94672.34;;;11.06;100.00
11329;BME280;5719;42.714;23.732;2023-05-19T04:35:39;94668.38;;;10.76;100.00
11329;BME280;5719;42.714;23.732;2023-05-19T04:38:08;94663.56;;;10.34;100.00
11329;BME280;5719;42.714;23.732;2023-05-19T04:40:36;94667.25;;;10.68;100.00
11329;BME280;5719;42.714;23.732;2023-05-19T04:43:04;94670.38;;;10.97;100.00
11329;BME280;5719;42.714;23.732;2023-05-19T04:45:33;94666.44;;;11.04;100.00
11329;BME280;5719;42.714;23.732;2023-05-19T04:48:02;94658.84;;;11.13;100.00
11329;BME280;5719;42.714;23.732;2023-05-19T04:50:29;94666.63;;;11.01;100.00
11329;BME280;5719;42.714;23.732;2023-05-19T04:52:58;94670.19;;;11.00;100.00
11329;BME280;5719;42.714;23.732;2023-05-19T04:55:25;94664.47;;;11.07;100.00
11329;BME280;5719;42.714;23.732;2023-05-19T04:57:52;94666.13;;;11.32;100.00
11329;BME280;5719;42.714;23.732;2023-05-19T05:00:20;94671.84;;;11.48;100.00
11329;BME280;5719;42.714;23.732;2023-05-19T05:02:47;94670.41;;;11.44;100.00
11329;BME280;5719;42.714;23.732;2023-05-19T05:05:15;94675.22;;;11.61;100.00
11329;BME280;5719;42.714;23.732;2023-05-19T05:07:42;94677.19;;;11.34;100.00
11329;BME280;5719;42.714;23.732;2023-05-19T05:10:10;94683.88;;;11.25;100.00
11329;BME280;5719;42.714;23.732;2023-05-19T05:12:38;94679.31;;;11.29;100.00
11329;BME280;5719;42.714;23.732;2023-05-19T05:15:06;94674.28;;;11.39;100.00
11329;BME280;5719;42.714;23.732;2023-05-19T05:17:34;94668.59;;;11.57;100.00
11329;BME280;5719;42.714;23.732;2023-05-19T05:20:02;94678.28;;;11.66;100.00
11329;BME280;5719;42.714;23.732;2023-05-19T05:22:31;94670.41;;;11.68;100.00
11329;BME280;5719;42.714;23.732;2023-05-19T05:24:59;94671.53;;;11.76;100.00
11329;BME280;5719;42.714;23.732;2023-05-19T05:27:28;94673.91;;;11.79;100.00
11329;BME280;5719;42.714;23.732;2023-05-19T05:29:55;94686.94;;;12.02;100.00
11329;BME280;5719;42.714;23.732;2023-05-19T05:32:22;94687.09;;;11.88;100.00
11329;BME280;5719;42.714;23.732;2023-05-19T05:34:49;94687.41;;;12.07;100.00
11329;BME280;5719;42.714;23.732;2023-05-19T05:37:16;94680.28;;;11.87;100.00
11329;BME280;5719;42.714;23.732;2023-05-19T05:39:43;94682.44;;;12.04;100.00
11329;BME280;5719;42.714;23.732;2023-05-19T05:42:10;94677.53;;;12.23;100.00
11329;BME280;5719;42.714;23.732;2023-05-19T05:44:38;94680.63;;;12.50;100.00
11329;BME280;5719;42.714;23.732;2023-05-19T05:47:06;94679.81;;;12.50;100.00
11329;BME280;5719;42.714;23.732;2023-05-19T05:49:37;94664.84;;;12.64;100.00
11329;BME280;5719;42.714;23.732;2023-05-19T05:52:05;94665.75;;;13.08;100.00
11329;BME280;5719;42.714;23.732;2023-05-19T05:54:34;94681.44;;;13.06;100.00
11329;BME280;5719;42.714;23.732;2023-05-19T05:57:01;94678.81;;;13.51;100.00
11329;BME280;5719;42.714;23.732;2023-05-19T05:59:28;94687.44;;;14.04;100.00
11329;BME280;5719;42.714;23.732;2023-05-19T06:01:57;94687.00;;;13.99;100.00
11329;BME280;5719;42.714;23.732;2023-05-19T06:04:24;94691.63;;;14.16;100.00
11329;BME280;5719;42.714;23.732;2023-05-19T06:06:51;94689.16;;;14.14;100.00
11329;BME280;5719;42.714;23.732;2023-05-19T06:09:21;94691.94;;;14.22;100.00
11329;BME280;5719;42.714;23.732;2023-05-19T06:11:48;94697.09;;;13.81;100.00
11329;BME280;5719;42.714;23.732;2023-05-19T06:14:15;94693.81;;;14.00;100.00
11329;BME280;5719;42.714;23.732;2023-05-19T06:16:43;94706.25;;;14.49;100.00
11329;BME280;5719;42.714;23.732;2023-05-19T06:19:11;94699.16;;;14.81;100.00
11329;BME280;5719;42.714;23.732;2023-05-19T06:21:38;94703.91;;;15.06;100.00
11329;BME280;5719;42.714;23.732;2023-05-19T06:24:07;94702.19;;;15.76;100.00
11329;BME280;5719;42.714;23.732;2023-05-19T06:26:34;94692.16;;;15.71;95.56
11329;BME280;5719;42.714;23.732;2023-05-19T06:29:01;94704.94;;;16.32;95.58
11329;BME280;5719;42.714;23.732;2023-05-19T06:31:28;94700.66;;;16.40;91.53
11329;BME280;5719;42.714;23.732;2023-05-19T06:33:55;94698.19;;;16.67;92.47
11329;BME280;5719;42.714;23.732;2023-05-19T06:36:24;94702.06;;;17.00;90.36
11329;BME280;5719;42.714;23.732;2023-05-19T06:38:51;94692.84;;;16.50;90.87
11329;BME280;5719;42.714;23.732;2023-05-19T06:41:18;94699.56;;;16.43;92.80
11329;BME280;5719;42.714;23.732;2023-05-19T06:43:46;94696.09;;;16.61;90.66
11329;BME280;5719;42.714;23.732;2023-05-19T06:46:13;94695.19;;;15.86;94.97
11329;BME280;5719;42.714;23.732;2023-05-19T06:48:42;94702.06;;;15.77;100.00
11329;BME280;5719;42.714;23.732;2023-05-19T06:51:09;94706.56;;;15.85;94.86
11329;BME280;5719;42.714;23.732;2023-05-19T06:53:37;94697.22;;;15.53;98.12
11329;BME280;5719;42.714;23.732;2023-05-19T06:56:05;94705.75;;;15.65;99.42
11329;BME280;5719;42.714;23.732;2023-05-19T06:58:32;94696.16;;;15.94;95.59
11329;BME280;5719;42.714;23.732;2023-05-19T07:00:59;94689.69;;;16.46;99.67
11329;BME280;5719;42.714;23.732;2023-05-19T07:03:26;94699.56;;;16.99;94.47
11329;BME280;5719;42.714;23.732;2023-05-19T07:05:55;94699.97;;;17.31;91.51
11329;BME280;5719;42.714;23.732;2023-05-19T07:08:22;94705.78;;;17.52;90.74
11329;BME280;5719;42.714;23.732;2023-05-19T07:10:50;94698.97;;;17.42;85.14
11329;BME280;5719;42.714;23.732;2023-05-19T07:13:17;94696.72;;;17.56;82.92
11329;BME280;5719;42.714;23.732;2023-05-19T07:15:44;94701.97;;;17.74;83.43
11329;BME280;5719;42.714;23.732;2023-05-19T07:18:13;94694.44;;;18.06;81.76
11329;BME280;5719;42.714;23.732;2023-05-19T07:20:40;94695.31;;;18.50;80.54
11329;BME280;5719;42.714;23.732;2023-05-19T07:23:08;94696.63;;;19.06;79.28
11329;BME280;5719;42.714;23.732;2023-05-19T07:25:35;94699.59;;;19.37;77.48
11329;BME280;5719;42.714;23.732;2023-05-19T07:28:03;94704.00;;;19.78;74.96
11329;BME280;5719;42.714;23.732;2023-05-19T07:30:30;94698.31;;;19.99;71.95
11329;BME280;5719;42.714;23.732;2023-05-19T07:32:57;94691.00;;;20.35;69.27
11329;BME280;5719;42.714;23.732;2023-05-19T07:35:25;94692.78;;;20.67;69.34
11329;BME280;5719;42.714;23.732;2023-05-19T07:37:52;94687.50;;;20.83;71.08
11329;BME280;5719;42.714;23.732;2023-05-19T07:40:19;94687.91;;;21.27;66.42
11329;BME280;5719;42.714;23.732;2023-05-19T07:42:48;94678.13;;;21.51;62.67
11329;BME280;5719;42.714;23.732;2023-05-19T07:45:16;94691.66;;;21.71;63.52
11329;BME280;5719;42.714;23.732;2023-05-19T07:47:43;94687.66;;;21.83;64.28
11329;BME280;5719;42.714;23.732;2023-05-19T07:50:10;94690.06;;;22.24;64.45
11329;BME280;5719;42.714;23.732;2023-05-19T07:52:37;94683.91;;;22.31;60.79
11329;BME280;5719;42.714;23.732;2023-05-19T07:55:05;94693.97;;;22.28;59.02
11329;BME280;5719;42.714;23.732;2023-05-19T07:57:31;94691.88;;;22.69;62.98
11329;BME280;5719;42.714;23.732;2023-05-19T07:59:58;94692.78;;;22.30;59.92
11329;BME280;5719;42.714;23.732;2023-05-19T08:02:27;94691.97;;;22.30;61.53
11329;BME280;5719;42.714;23.732;2023-05-19T08:04:53;94694.78;;;22.28;60.63
11329;BME280;5719;42.714;23.732;2023-05-19T08:07:20;94691.69;;;22.47;60.84
11329;BME280;5719;42.714;23.732;2023-05-19T08:09:47;94687.63;;;22.60;58.89
11329;BME280;5719;42.714;23.732;2023-05-19T08:12:14;94692.53;;;22.63;60.50
11329;BME280;5719;42.714;23.732;2023-05-19T08:14:41;94691.56;;;23.01;58.70
11329;BME280;5719;42.714;23.732;2023-05-19T08:17:08;94693.19;;;23.02;56.46
11329;BME280;5719;42.714;23.732;2023-05-19T08:19:36;94699.56;;;23.08;58.25
11329;BME280;5719;42.714;23.732;2023-05-19T08:22:04;94707.47;;;23.22;56.64
11329;BME280;5719;42.714;23.732;2023-05-19T08:24:30;94704.75;;;23.30;56.55
11329;BME280;5719;42.714;23.732;2023-05-19T08:26:58;94705.84;;;23.36;56.35
11329;BME280;5719;42.714;23.732;2023-05-19T08:29:25;94696.56;;;23.69;54.16
11329;BME280;5719;42.714;23.732;2023-05-19T08:31:52;94703.00;;;23.81;56.08
11329;BME280;5719;42.714;23.732;2023-05-19T08:34:19;94696.56;;;23.69;55.28
11329;BME280;5719;42.714;23.732;2023-05-19T08:36:48;94706.09;;;23.85;56.86
11329;BME280;5719;42.714;23.732;2023-05-19T08:39:15;94697.09;;;23.65;54.29
11329;BME280;5719;42.714;23.732;2023-05-19T08:41:45;94706.72;;;23.87;55.28
11329;BME280;5719;42.714;23.732;2023-05-19T08:44:12;94698.53;;;23.97;53.62
11329;BME280;5719;42.714;23.732;2023-05-19T08:46:39;94695.94;;;24.18;53.53
11329;BME280;5719;42.714;23.732;2023-05-19T08:49:10;94693.53;;;24.23;53.39
11329;BME280;5719;42.714;23.732;2023-05-19T08:51:40;94684.66;;;24.30;54.31
11329;BME280;5719;42.714;23.732;2023-05-19T08:54:15;94685.91;;;24.56;51.07
11329;BME280;5719;42.714;23.732;2023-05-19T08:56:43;94689.72;;;24.74;50.66
11329;BME280;5719;42.714;23.732;2023-05-19T08:59:12;94673.31;;;24.79;50.33
11329;BME280;5719;42.714;23.732;2023-05-19T09:01:41;94672.75;;;25.11;50.58
11329;BME280;5719;42.714;23.732;2023-05-19T09:04:08;94675.69;;;25.29;49.85
11329;BME280;5719;42.714;23.732;2023-05-19T09:06:35;94678.84;;;25.12;50.28
11329;BME280;5719;42.714;23.732;2023-05-19T09:09:05;94674.28;;;25.27;49.49
11329;BME280;5719;42.714;23.732;2023-05-19T09:11:34;94676.72;;;25.28;50.64
11329;BME280;5719;42.714;23.732;2023-05-19T09:14:02;94670.50;;;25.43;50.18
11329;BME280;5719;42.714;23.732;2023-05-19T09:16:29;94672.19;;;25.22;48.75
11329;BME280;5719;42.714;23.732;2023-05-19T09:18:57;94664.63;;;25.13;49.36
11329;BME280;5719;42.714;23.732;2023-05-19T09:21:28;94669.19;;;25.32;48.85
11329;BME280;5719;42.714;23.732;2023-05-19T09:24:03;94662.34;;;25.44;47.05
11329;BME280;5719;42.714;23.732;2023-05-19T09:26:36;94659.59;;;25.59;48.25
11329;BME280;5719;42.714;23.732;2023-05-19T09:29:14;94664.59;;;25.88;46.74
11329;BME280;5719;42.714;23.732;2023-05-19T09:31:47;94663.63;;;26.02;47.94
11329;BME280;5719;42.714;23.732;2023-05-19T09:34:15;94662.59;;;25.97;45.40
11329;BME280;5719;42.714;23.732;2023-05-19T09:36:42;94670.13;;;26.00;45.84
11329;BME280;5719;42.714;23.732;2023-05-19T09:39:12;94662.56;;;25.90;44.30
11329;BME280;5719;42.714;23.732;2023-05-19T09:41:41;94663.22;;;25.51;45.03
11329;BME280;5719;42.714;23.732;2023-05-19T09:44:12;94669.34;;;24.89;46.56
11329;BME280;5719;42.714;23.732;2023-05-19T09:46:47;94666.75;;;24.75;47.10
11329;BME280;5719;42.714;23.732;2023-05-19T09:49:18;94668.56;;;24.96;48.25
11329;BME280;5719;42.714;23.732;2023-05-19T09:51:45;94666.47;;;24.42;46.17
11329;BME280;5719;42.714;23.732;2023-05-19T09:54:14;94660.38;;;24.20;48.67
11329;BME280;5719;42.714;23.732;2023-05-19T09:56:43;94664.13;;;24.11;49.50
11329;BME280;5719;42.714;23.732;2023-05-19T09:59:10;94655.44;;;23.96;48.19
11329;BME280;5719;42.714;23.732;2023-05-19T10:01:40;94665.28;;;23.87;49.93
11329;BME280;5719;42.714;23.732;2023-05-19T10:04:11;94658.81;;;23.90;48.74
11329;BME280;5719;42.714;23.732;2023-05-19T10:06:39;94651.56;;;24.13;48.48
11329;BME280;5719;42.714;23.732;2023-05-19T10:09:06;94651.19;;;24.37;46.01
11329;BME280;5719;42.714;23.732;2023-05-19T10:11:33;94654.44;;;24.61;47.48
11329;BME280;5719;42.714;23.732;2023-05-19T10:14:03;94653.75;;;24.73;46.15
11329;BME280;5719;42.714;23.732;2023-05-19T10:16:30;94646.94;;;24.85;46.73
11329;BME280;5719;42.714;23.732;2023-05-19T10:18:58;94647.06;;;25.05;48.18
11329;BME280;5719;42.714;23.732;2023-05-19T10:21:26;94649.63;;;25.26;45.15
11329;BME280;5719;42.714;23.732;2023-05-19T10:23:53;94652.03;;;25.56;45.65
11329;BME280;5719;42.714;23.732;2023-05-19T10:26:20;94640.22;;;25.52;43.77
11329;BME280;5719;42.714;23.732;2023-05-19T10:28:48;94644.38;;;25.33;43.83
11329;BME280;5719;42.714;23.732;2023-05-19T10:31:18;94660.06;;;24.79;43.62
11329;BME280;5719;42.714;23.732;2023-05-19T10:34:00;94656.97;;;24.26;44.80
11329;BME280;5719;42.714;23.732;2023-05-19T10:36:43;94652.69;;;23.68;46.32
11329;BME280;5719;42.714;23.732;2023-05-19T10:39:16;94653.06;;;23.36;46.04
11329;BME280;5719;42.714;23.732;2023-05-19T10:41:49;94641.63;;;23.14;48.44
11329;BME280;5719;42.714;23.732;2023-05-19T10:44:27;94650.56;;;23.13;49.02
11329;BME280;5719;42.714;23.732;2023-05-19T10:46:58;94651.63;;;23.19;49.11
11329;BME280;5719;42.714;23.732;2023-05-19T10:49:25;94652.00;;;23.01;48.16
11329;BME280;5719;42.714;23.732;2023-05-19T10:51:54;94664.97;;;23.03;51.12
11329;BME280;5719;42.714;23.732;2023-05-19T10:54:41;94653.19;;;22.99;50.49
11329;BME280;5719;42.714;23.732;2023-05-19T10:57:13;94659.38;;;23.50;48.34
11329;BME280;5719;42.714;23.732;2023-05-19T10:59:40;94656.94;;;23.84;50.58
11329;BME280;5719;42.714;23.732;2023-05-19T11:02:39;94649.28;;;24.10;48.07
11329;BME280;5719;42.714;23.732;2023-05-19T11:05:07;94654.03;;;24.36;48.05
11329;BME280;5719;42.714;23.732;2023-05-19T11:07:35;94665.50;;;24.07;46.23
11329;BME280;5719;42.714;23.732;2023-05-19T11:10:04;94655.97;;;24.27;49.28
11329;BME280;5719;42.714;23.732;2023-05-19T11:12:39;94656.97;;;24.69;49.33
11329;BME280;5719;42.714;23.732;2023-05-19T11:15:10;94649.13;;;25.10;47.52
11329;BME280;5719;42.714;23.732;2023-05-19T11:17:39;94651.88;;;25.29;46.59
11329;BME280;5719;42.714;23.732;2023-05-19T11:20:08;94659.75;;;25.16;43.54
11329;BME280;5719;42.714;23.732;2023-05-19T11:23:00;94695.13;;;24.38;44.30
11329;BME280;5719;42.714;23.732;2023-05-19T11:28:12;94706.81;;;21.69;50.50
11329;BME280;5719;42.714;23.732;2023-05-19T11:30:41;94693.00;;;21.20;53.92
11329;BME280;5719;42.714;23.732;2023-05-19T11:33:11;94704.59;;;20.63;56.58
11329;BME280;5719;42.714;23.732;2023-05-19T11:35:38;94704.53;;;20.95;56.28
11329;BME280;5719;42.714;23.732;2023-05-19T11:38:06;94702.53;;;21.68;55.38
11329;BME280;5719;42.714;23.732;2023-05-19T11:40:33;94720.25;;;22.13;54.29
11329;BME280;5719;42.714;23.732;2023-05-19T11:43:00;94722.50;;;21.93;55.10
11329;BME280;5719;42.714;23.732;2023-05-19T11:45:28;94724.56;;;22.06;53.53
11329;BME280;5719;42.714;23.732;2023-05-19T11:47:57;94721.63;;;22.01;53.15
11329;BME280;5719;42.714;23.732;2023-05-19T11:50:26;94721.06;;;21.36;55.48
11329;BME280;5719;42.714;23.732;2023-05-19T11:52:53;94712.59;;;22.04;54.08
11329;BME280;5719;42.714;23.732;2023-05-19T11:55:21;94715.97;;;22.58;52.53
11329;BME280;5719;42.714;23.732;2023-05-19T11:57:56;94703.38;;;23.05;51.90
11329;BME280;5719;42.714;23.732;2023-05-19T12:00:24;94699.66;;;23.14;50.50
11329;BME280;5719;42.714;23.732;2023-05-19T12:02:51;94698.63;;;22.63;50.60
11329;BME280;5719;42.714;23.732;2023-05-19T12:05:19;94695.97;;;22.63;53.99
11329;BME280;5719;42.714;23.732;2023-05-19T12:07:48;94691.66;;;22.70;54.07
11329;BME280;5719;42.714;23.732;2023-05-19T12:10:16;94682.19;;;22.84;54.80
11329;BME280;5719;42.714;23.732;2023-05-19T12:12:45;94674.13;;;22.40;54.88
11329;BME280;5719;42.714;23.732;2023-05-19T12:15:12;94679.66;;;22.45;54.10
11329;BME280;5719;42.714;23.732;2023-05-19T12:17:41;94684.53;;;22.56;53.50
11329;BME280;5719;42.714;23.732;2023-05-19T12:20:08;94686.25;;;22.04;53.46
11329;BME280;5719;42.714;23.732;2023-05-19T12:22:36;94683.78;;;22.47;52.38
11329;BME280;5719;42.714;23.732;2023-05-19T12:25:05;94672.22;;;22.71;54.18
11329;BME280;5719;42.714;23.732;2023-05-19T12:27:34;94678.16;;;23.03;53.62
11329;BME280;5719;42.714;23.732;2023-05-19T12:30:03;94664.78;;;22.75;50.36
11329;BME280;5719;42.714;23.732;2023-05-19T12:32:32;94669.59;;;22.11;52.61
11329;BME280;5719;42.714;23.732;2023-05-19T12:35:01;94670.09;;;22.07;55.97
11329;BME280;5719;42.714;23.732;2023-05-19T12:37:29;94664.19;;;23.31;50.00
11329;BME280;5719;42.714;23.732;2023-05-19T12:39:57;94666.19;;;23.59;47.64
11329;BME280;5719;42.714;23.732;2023-05-19T12:42:27;94678.06;;;23.84;46.87
11329;BME280;5719;42.714;23.732;2023-05-19T12:44:56;94662.09;;;23.27;47.80
11329;BME280;5719;42.714;23.732;2023-05-19T12:47:29;94671.28;;;23.60;47.62
11329;BME280;5719;42.714;23.732;2023-05-19T12:50:02;94671.69;;;24.57;45.01
11329;BME280;5719;42.714;23.732;2023-05-19T12:52:30;94667.94;;;23.87;44.62
11329;BME280;5719;42.714;23.732;2023-05-19T12:55:00;94650.94;;;24.54;45.82
11329;BME280;5719;42.714;23.732;2023-05-19T12:57:33;94643.38;;;24.51;44.63
11329;BME280;5719;42.714;23.732;2023-05-19T13:00:01;94644.88;;;25.50;42.49
11329;BME280;5719;42.714;23.732;2023-05-19T13:02:33;94650.44;;;26.28;41.06
11329;BME280;5719;42.714;23.732;2023-05-19T13:05:00;94650.28;;;26.76;39.63
11329;BME280;5719;42.714;23.732;2023-05-19T13:07:28;94651.44;;;27.33;37.63
11329;BME280;5719;42.714;23.732;2023-05-19T13:09:55;94649.81;;;27.32;37.67